createdAt,value
2023-04-02T00:00:11.974Z,72.67
2023-04-02T00:03:08.704Z,72.45
2023-04-02T00:05:37.275Z,71.95
2023-04-02T00:08:19.595Z,71.90
2023-04-02T00:11:00.962Z,71.38
2023-04-02T00:13:34.586Z,70.48
2023-04-02T00:16:06.830Z,70.04
2023-04-02T00:18:40.688Z,68.96
2023-04-02T00:21:17.378Z,68.44
2023-04-02T00:23:45.903Z,68.46
2023-04-02T00:26:43.525Z,68.24
2023-04-02T00:29:13.695Z,67.28
2023-04-02T00:31:45.045Z,66.85
2023-04-02T00:34:25.880Z,66.87
2023-04-02T00:36:54.494Z,66.56
2023-04-02T00:39:25.906Z,66.87
2023-04-02T00:42:05.287Z,66.89
2023-04-02T00:44:38.593Z,66.91
2023-04-02T00:47:20.338Z,67.22
2023-04-02T00:49:54.336Z,67.44
2023-04-02T00:52:27.978Z,68.02
2023-04-02T00:55:01.331Z,68.64
2023-04-02T00:57:29.759Z,68.41
2023-04-02T01:00:22.976Z,68.37
2023-04-02T01:03:28.749Z,68.10
2023-04-02T01:06:03.694Z,67.70
2023-04-02T01:08:34.851Z,66.93
2023-04-02T01:11:34.874Z,66.61
2023-04-02T01:14:12.244Z,66.16
2023-04-02T01:16:46.758Z,66.31
2023-04-02T01:19:27.514Z,66.51
2023-04-02T01:22:05.240Z,66.81
2023-04-02T01:24:37.438Z,67.43
2023-04-02T01:27:16.593Z,67.33
2023-04-02T01:29:56.767Z,67.67
2023-04-02T01:32:28.356Z,67.91
2023-04-02T01:34:58.450Z,68.06
2023-04-02T01:37:32.755Z,68.37
2023-04-02T01:40:06.559Z,68.69
2023-04-02T01:42:34.791Z,68.79
2023-04-02T01:45:09.120Z,68.80
2023-04-02T01:47:38.978Z,68.35
2023-04-02T01:50:25.829Z,67.54
2023-04-02T01:52:57.310Z,67.30
2023-04-02T01:55:33.654Z,67.36
2023-04-02T01:58:04.012Z,67.44
2023-04-02T02:00:34.684Z,67.23
2023-04-02T02:03:03.969Z,67.16
2023-04-02T02:05:32.950Z,66.60
2023-04-02T02:08:02.193Z,66.45
2023-04-02T02:10:38.998Z,66.61
2023-04-02T02:13:07.291Z,66.18
2023-04-02T02:15:36.574Z,66.07
2023-04-02T02:18:06.935Z,66.31
2023-04-02T02:20:36.295Z,66.69
2023-04-02T02:23:05.646Z,66.76
2023-04-02T02:25:36.473Z,66.93
2023-04-02T02:28:21.269Z,67.07
2023-04-02T02:30:54.358Z,67.22
2023-04-02T02:33:47.737Z,67.13
2023-04-02T02:36:25.121Z,67.29
2023-04-02T02:39:03.764Z,67.25
2023-04-02T02:41:56.389Z,67.45
2023-04-02T02:44:29.397Z,67.15
2023-04-02T02:47:04.561Z,67.25
2023-04-02T02:49:36.454Z,67.36
2023-04-02T02:52:08.803Z,67.58
2023-04-02T02:55:01.281Z,67.26
2023-04-02T02:57:37.654Z,67.15
2023-04-02T03:00:10.075Z,66.96
2023-04-02T03:02:40.627Z,66.83
2023-04-02T03:05:16.177Z,66.62
2023-04-02T03:07:44.970Z,66.07
2023-04-02T03:10:42.921Z,66.65
2023-04-02T03:13:26.670Z,66.50
2023-04-02T03:16:07.394Z,65.88
2023-04-02T03:18:59.581Z,65.23
2023-04-02T03:21:39.689Z,65.55
2023-04-02T03:24:37.499Z,65.47
2023-04-02T03:27:37.363Z,65.11
2023-04-02T03:30:37.243Z,65.10
2023-04-02T03:33:58.870Z,65.25
2023-04-02T03:36:52.229Z,65.44
2023-04-02T03:39:31.350Z,65.74
2023-04-02T03:42:07.000Z,66.22
2023-04-02T03:45:15.626Z,66.87
2023-04-02T03:48:13.081Z,67.58
2023-04-02T03:50:52.590Z,67.78
2023-04-02T03:53:25.209Z,68.35
2023-04-02T03:55:55.916Z,68.53
2023-04-02T03:58:42.146Z,68.60
2023-04-02T04:01:23.718Z,68.72
2023-04-02T04:04:02.009Z,67.97
2023-04-02T04:06:33.690Z,67.91
2023-04-02T04:09:11.485Z,68.27
2023-04-02T04:11:46.251Z,68.16
2023-04-02T04:14:19.509Z,68.10
2023-04-02T04:17:04.552Z,67.52
2023-04-02T04:19:45.741Z,67.12
2023-04-02T04:22:30.692Z,66.71
2023-04-02T04:25:07.682Z,65.90
2023-04-02T04:27:58.469Z,65.69
2023-04-02T04:30:44.150Z,65.40
2023-04-02T04:33:22.712Z,65.56
2023-04-02T04:36:03.726Z,65.14
2023-04-02T04:38:39.727Z,64.92
2023-04-02T04:41:19.595Z,65.22
2023-04-02T04:43:51.327Z,65.55
2023-04-02T04:46:31.224Z,65.67
2023-04-02T04:49:12.399Z,65.82
2023-04-02T04:51:56.425Z,65.46
2023-04-02T04:54:27.907Z,65.23
2023-04-02T04:57:01.872Z,64.04
2023-04-02T04:59:36.516Z,64.16
2023-04-02T05:02:19.848Z,64.30
2023-04-02T05:04:51.975Z,64.28
2023-04-02T05:07:37.048Z,63.86
2023-04-02T05:10:14.739Z,64.05
2023-04-02T05:12:54.682Z,64.40
2023-04-02T05:15:32.517Z,63.90
2023-04-02T05:18:44.483Z,63.56
2023-04-02T05:21:19.749Z,63.85
2023-04-02T05:23:51.579Z,64.00
2023-04-02T05:26:29.577Z,63.71
2023-04-02T05:29:16.327Z,63.25
2023-04-02T05:31:54.650Z,62.86
2023-04-02T05:34:33.537Z,63.04
2023-04-02T05:37:02.587Z,62.74
2023-04-02T05:39:32.889Z,62.29
2023-04-02T05:42:08.451Z,61.41
2023-04-02T05:45:07.184Z,60.94
2023-04-02T05:47:41.308Z,61.00
2023-04-02T05:50:25.464Z,61.31
2023-04-02T05:53:09.383Z,60.89
2023-04-02T05:55:49.128Z,61.22
2023-04-02T05:58:37.028Z,61.40
2023-04-02T06:01:45.589Z,61.26
2023-04-02T06:04:47.051Z,60.90
2023-04-02T06:07:23.129Z,60.89
2023-04-02T06:10:29.283Z,60.99
2023-04-02T06:13:03.741Z,60.18
2023-04-02T06:15:38.002Z,59.31
2023-04-02T06:18:20.207Z,58.67
2023-04-02T06:20:49.902Z,58.21
2023-04-02T06:23:23.445Z,57.23
2023-04-02T06:26:00.793Z,56.62
2023-04-02T06:28:42.269Z,56.08
2023-04-02T06:31:27.871Z,55.51
2023-04-02T06:33:57.177Z,55.17
2023-04-02T06:36:28.747Z,54.36
2023-04-02T06:39:07.941Z,53.92
2023-04-02T06:41:36.838Z,53.29
2023-04-02T06:44:28.310Z,52.45
2023-04-02T06:47:11.931Z,51.52
2023-04-02T06:49:48.388Z,51.61
2023-04-02T06:52:26.972Z,51.24
2023-04-02T06:54:55.418Z,51.31
2023-04-02T06:57:25.287Z,51.50
2023-04-02T06:59:54.728Z,51.47
2023-04-02T07:02:35.555Z,51.33
2023-04-02T07:05:11.851Z,51.56
2023-04-02T07:07:46.109Z,51.30
2023-04-02T07:10:15.726Z,51.38
2023-04-02T07:12:43.946Z,52.10
2023-04-02T07:15:19.998Z,52.50
2023-04-02T07:17:49.042Z,52.93
2023-04-02T07:20:38.953Z,52.49
2023-04-02T07:23:10.443Z,52.52
2023-04-02T07:25:38.468Z,52.05
2023-04-02T07:28:06.712Z,52.00
2023-04-02T07:30:35.547Z,51.60
2023-04-02T07:33:03.717Z,51.92
2023-04-02T07:35:32.178Z,52.73
2023-04-02T07:38:00.553Z,53.40
2023-04-02T07:40:28.632Z,54.35
2023-04-02T07:42:56.898Z,54.62
2023-04-02T07:45:24.968Z,54.78
2023-04-02T07:47:53.906Z,54.68
2023-04-02T07:50:23.036Z,54.66
2023-04-02T07:52:51.106Z,54.27
2023-04-02T07:55:19.084Z,53.70
2023-04-02T07:57:52.615Z,53.42
2023-04-02T08:00:23.102Z,53.25
2023-04-02T08:02:52.824Z,53.52
2023-04-02T08:05:20.992Z,53.37
2023-04-02T08:07:56.229Z,52.52
2023-04-02T08:10:25.097Z,51.86
2023-04-02T08:12:53.496Z,50.34
2023-04-02T08:15:21.873Z,49.20
2023-04-02T08:17:50.006Z,48.59
2023-04-02T08:20:22.941Z,48.19
2023-04-02T08:22:51.224Z,47.46
2023-04-02T08:25:19.572Z,46.85
2023-04-02T08:27:48.798Z,45.73
2023-04-02T08:30:18.189Z,44.89
2023-04-02T08:32:46.545Z,44.99
2023-04-02T08:35:16.913Z,44.65
2023-04-02T08:37:45.174Z,43.78
2023-04-02T08:40:23.218Z,43.75
2023-04-02T08:43:22.343Z,43.64
2023-04-02T08:46:00.625Z,43.33
2023-04-02T08:48:32.725Z,42.73
2023-04-02T08:51:02.769Z,43.86
2023-04-02T08:53:35.074Z,43.44
2023-04-02T08:56:18.000Z,42.82
2023-04-02T08:58:54.438Z,42.86
2023-04-02T09:01:41.737Z,42.53
2023-04-02T09:04:23.390Z,42.47
2023-04-02T09:06:55.516Z,43.66
2023-04-02T09:09:25.060Z,44.18
2023-04-02T09:11:55.024Z,44.27
2023-04-02T09:14:58.789Z,44.51
2023-04-02T09:17:27.630Z,44.66
2023-04-02T09:20:17.381Z,44.34
2023-04-02T09:22:48.627Z,43.93
2023-04-02T09:25:22.125Z,44.43
2023-04-02T09:27:53.344Z,44.18
2023-04-02T09:31:02.311Z,44.33
2023-04-02T09:33:51.002Z,44.76
2023-04-02T09:36:19.050Z,44.27
2023-04-02T09:39:07.387Z,44.69
2023-04-02T09:41:37.200Z,44.95
2023-04-02T09:44:26.282Z,45.35
2023-04-02T09:47:00.295Z,44.63
2023-04-02T09:49:34.959Z,44.91
2023-04-02T09:52:18.156Z,45.11
2023-04-02T09:55:06.088Z,45.43
2023-04-02T09:57:34.242Z,45.09
2023-04-02T10:00:32.243Z,44.80
2023-04-02T10:03:33.242Z,44.93
2023-04-02T10:06:16.464Z,45.84
2023-04-02T10:08:45.698Z,45.42
2023-04-02T10:11:20.081Z,45.71
2023-04-02T10:14:12.227Z,45.63
2023-04-02T10:16:58.217Z,45.33
2023-04-02T10:19:41.085Z,44.86
2023-04-02T10:22:21.083Z,44.88
2023-04-02T10:24:50.790Z,44.14
2023-04-02T10:27:26.328Z,43.59
2023-04-02T10:30:40.276Z,43.29
2023-04-02T10:33:20.230Z,42.68
2023-04-02T10:35:51.061Z,43.23
2023-04-02T10:38:28.322Z,42.21
2023-04-02T10:41:05.666Z,42.73
2023-04-02T10:43:47.085Z,42.71
2023-04-02T10:46:24.472Z,42.35
2023-04-02T10:49:12.463Z,42.41
2023-04-02T10:51:56.291Z,42.40
2023-04-02T10:54:46.586Z,42.72
2023-04-02T10:57:26.959Z,42.46
2023-04-02T11:00:08.270Z,41.57
2023-04-02T11:03:00.244Z,41.01
2023-04-02T11:05:32.964Z,41.23
2023-04-02T11:08:07.781Z,41.55
2023-04-02T11:10:40.723Z,41.11
2023-04-02T11:13:29.110Z,40.70
2023-04-02T11:15:57.321Z,40.90
2023-04-02T11:18:36.130Z,41.25
2023-04-02T11:21:25.829Z,41.61
2023-04-02T11:24:03.903Z,41.28
2023-04-02T11:26:41.315Z,40.98
2023-04-02T11:29:19.396Z,41.02
2023-04-02T11:31:49.718Z,40.16
2023-04-02T11:34:49.552Z,40.51
2023-04-02T11:37:45.838Z,40.22
2023-04-02T11:40:14.171Z,39.69
2023-04-02T11:42:50.583Z,39.16
2023-04-02T11:45:21.644Z,39.32
2023-04-02T11:48:13.159Z,39.30
2023-04-02T11:50:44.193Z,38.40
2023-04-02T11:53:12.343Z,38.25
2023-04-02T11:55:43.026Z,38.49
2023-04-02T11:58:22.966Z,38.36
2023-04-02T12:01:15.788Z,37.00
2023-04-02T12:04:21.423Z,37.44
2023-04-02T12:06:49.611Z,38.04
2023-04-02T12:09:24.136Z,37.92
2023-04-02T12:11:54.972Z,37.80
2023-04-02T12:14:38.278Z,37.53
2023-04-02T12:17:18.892Z,37.58
2023-04-02T12:19:53.097Z,38.29
2023-04-02T12:22:28.090Z,38.23
2023-04-02T12:25:00.589Z,38.07
2023-04-02T12:27:30.283Z,39.27
2023-04-02T12:30:18.848Z,40.46
2023-04-02T12:32:48.014Z,40.55
2023-04-02T12:35:29.404Z,40.56
2023-04-02T12:37:58.163Z,40.81
2023-04-02T12:40:27.320Z,40.83
2023-04-02T12:42:55.585Z,41.60
2023-04-02T12:45:29.333Z,42.24
2023-04-02T12:47:58.521Z,41.49
2023-04-02T12:50:26.856Z,41.00
2023-04-02T12:52:58.426Z,40.84
2023-04-02T12:55:27.507Z,40.90
2023-04-02T12:57:57.665Z,40.43
2023-04-02T13:00:25.799Z,40.98
2023-04-02T13:03:06.234Z,41.07
2023-04-02T13:05:39.718Z,40.85
2023-04-02T13:08:17.489Z,41.26
2023-04-02T13:10:52.142Z,40.63
2023-04-02T13:13:27.991Z,40.86
2023-04-02T13:16:02.934Z,41.42
2023-04-02T13:18:33.497Z,41.50
2023-04-02T13:21:07.098Z,41.80
2023-04-02T13:23:37.795Z,41.68
2023-04-02T13:26:08.773Z,41.45
2023-04-02T13:28:37.668Z,41.58
2023-04-02T13:31:05.878Z,42.01
2023-04-02T13:33:34.043Z,42.75
2023-04-02T13:36:02.320Z,43.87
2023-04-02T13:38:30.434Z,45.10
2023-04-02T13:40:58.832Z,45.42
2023-04-02T13:43:26.900Z,46.35
2023-04-02T13:45:58.386Z,46.67
2023-04-02T13:48:28.985Z,46.91
2023-04-02T13:50:57.160Z,46.79
2023-04-02T13:53:32.835Z,46.92
2023-04-02T13:56:01.101Z,46.35
2023-04-02T13:58:29.075Z,46.27
2023-04-02T14:00:57.342Z,45.64
2023-04-02T14:03:26.026Z,45.61
2023-04-02T14:06:24.230Z,45.27
2023-04-02T14:09:22.068Z,45.28
2023-04-02T14:11:59.045Z,45.58
2023-04-02T14:15:00.721Z,45.82
2023-04-02T14:17:37.505Z,46.27
2023-04-02T14:20:13.650Z,46.29
2023-04-02T14:22:41.637Z,46.68
2023-04-02T14:25:47.766Z,47.07
2023-04-02T14:28:38.199Z,46.55
2023-04-02T14:31:34.129Z,46.29
2023-04-02T14:34:38.913Z,46.17
2023-04-02T14:37:18.159Z,46.32
2023-04-02T14:40:05.699Z,46.09
2023-04-02T14:42:36.611Z,46.01
2023-04-02T14:45:24.850Z,46.37
2023-04-02T14:48:03.450Z,46.27
2023-04-02T14:50:38.924Z,46.39
2023-04-02T14:53:18.560Z,46.40
2023-04-02T14:55:49.515Z,45.92
2023-04-02T14:58:29.717Z,46.10
2023-04-02T15:01:36.849Z,46.50
2023-04-02T15:04:11.062Z,46.79
2023-04-02T15:06:47.696Z,46.80
2023-04-02T15:09:24.085Z,47.03
2023-04-02T15:11:56.811Z,47.41
2023-04-02T15:14:33.552Z,47.41
2023-04-02T15:17:01.645Z,47.12
2023-04-02T15:19:30.052Z,46.82
2023-04-02T15:22:32.370Z,46.65
2023-04-02T15:25:18.561Z,46.22
2023-04-02T15:28:07.368Z,46.29
2023-04-02T15:30:44.295Z,46.57
2023-04-02T15:33:33.986Z,46.29
2023-04-02T15:36:14.760Z,46.05
2023-04-02T15:38:52.445Z,46.11
2023-04-02T15:41:32.237Z,46.10
2023-04-02T15:44:13.257Z,45.64
2023-04-02T15:47:12.151Z,45.62
2023-04-02T15:49:56.943Z,45.66
2023-04-02T15:52:34.301Z,46.06
2023-04-02T15:55:24.572Z,46.34
2023-04-02T15:58:10.379Z,46.92
2023-04-02T16:01:03.039Z,47.33
2023-04-02T16:03:43.270Z,47.74
2023-04-02T16:06:43.846Z,48.12
2023-04-02T16:09:34.357Z,47.98
2023-04-02T16:12:15.940Z,48.09
2023-04-02T16:14:47.762Z,48.75
2023-04-02T16:17:26.412Z,49.19
2023-04-02T16:20:15.854Z,49.47
2023-04-02T16:23:00.108Z,49.74
2023-04-02T16:25:39.089Z,50.15
2023-04-02T16:28:22.119Z,50.46
2023-04-02T16:31:02.711Z,50.69
2023-04-02T16:33:56.899Z,51.15
2023-04-02T16:36:43.017Z,51.72
2023-04-02T16:39:36.761Z,52.14
2023-04-02T16:42:25.102Z,52.48
2023-04-02T16:45:19.361Z,52.46
2023-04-02T16:47:59.407Z,52.66
2023-04-02T16:51:11.145Z,52.93
2023-04-02T16:54:02.321Z,53.75
2023-04-02T16:56:52.520Z,54.20
2023-04-02T16:59:29.735Z,54.61
2023-04-02T17:02:13.117Z,54.08
2023-04-02T17:05:08.672Z,53.59
2023-04-02T17:07:53.021Z,53.33
2023-04-02T17:10:31.764Z,53.29
2023-04-02T17:13:19.167Z,53.15
2023-04-02T17:15:59.474Z,53.15
2023-04-02T17:18:27.727Z,53.44
2023-04-02T17:21:09.011Z,53.35
2023-04-02T17:24:01.973Z,52.78
2023-04-02T17:26:34.940Z,54.08
2023-04-02T17:29:09.264Z,54.15
2023-04-02T17:31:40.874Z,54.05
2023-04-02T17:34:22.813Z,52.80
2023-04-02T17:37:06.316Z,54.41
2023-04-02T17:40:00.703Z,55.57
2023-04-02T17:42:38.093Z,55.39
2023-04-02T17:45:34.604Z,56.61
2023-04-02T17:48:09.439Z,58.53
2023-04-02T17:50:44.085Z,58.56
2023-04-02T17:53:22.912Z,58.90
2023-04-02T17:56:09.841Z,59.15
2023-04-02T17:59:05.739Z,58.96
2023-04-02T18:01:40.879Z,58.87
2023-04-02T18:04:24.109Z,59.30
2023-04-02T18:07:12.092Z,59.70
2023-04-02T18:09:49.592Z,58.27
2023-04-02T18:12:23.476Z,58.33
2023-04-02T18:15:10.456Z,58.69
2023-04-02T18:17:51.702Z,58.28
2023-04-02T18:20:27.904Z,58.41
2023-04-02T18:23:08.452Z,59.16
2023-04-02T18:26:27.937Z,58.91
2023-04-02T18:29:19.554Z,57.71
2023-04-02T18:31:57.824Z,58.06
2023-04-02T18:34:50.302Z,58.42
2023-04-02T18:37:47.793Z,58.18
2023-04-02T18:40:35.907Z,58.84
2023-04-02T18:43:19.281Z,58.96
2023-04-02T18:46:22.584Z,58.32
2023-04-02T18:49:15.554Z,58.49
2023-04-02T18:51:44.359Z,58.60
2023-04-02T18:54:43.382Z,59.91
2023-04-02T18:57:20.665Z,60.54
2023-04-02T19:00:23.745Z,60.88
2023-04-02T19:03:13.802Z,61.17
2023-04-02T19:05:49.806Z,61.93
2023-04-02T19:08:28.306Z,62.36
2023-04-02T19:11:06.935Z,62.62
2023-04-02T19:13:35.619Z,63.11
2023-04-02T19:16:09.888Z,63.00
2023-04-02T19:19:03.390Z,63.74
2023-04-02T19:21:50.406Z,64.00
2023-04-02T19:24:52.466Z,64.28
2023-04-02T19:27:58.351Z,65.04
2023-04-02T19:31:09.088Z,65.40
2023-04-02T19:33:57.344Z,65.39
2023-04-02T19:37:04.836Z,62.85
2023-04-02T19:39:46.977Z,62.00
2023-04-02T19:42:41.844Z,61.76
2023-04-02T19:45:39.410Z,61.82
2023-04-02T19:48:14.003Z,61.43
2023-04-02T19:50:42.273Z,61.61
2023-04-02T19:53:10.773Z,60.99
2023-04-02T19:55:41.208Z,60.93
2023-04-02T19:58:24.740Z,61.51
2023-04-02T20:00:53.029Z,61.87
2023-04-02T20:03:21.706Z,64.58
2023-04-02T20:05:49.800Z,69.49
2023-04-02T20:08:18.252Z,69.85
2023-04-02T20:10:46.636Z,71.67
2023-04-02T20:13:14.715Z,72.17
2023-04-02T20:15:42.988Z,72.86
2023-04-02T20:18:11.684Z,72.18
2023-04-02T20:20:39.961Z,72.26
2023-04-02T20:23:08.389Z,72.07
2023-04-02T20:25:36.724Z,72.34
2023-04-02T20:28:04.877Z,71.06
2023-04-02T20:30:33.266Z,71.02
2023-04-02T20:33:02.439Z,73.05
2023-04-02T20:35:34.596Z,73.41
2023-04-02T20:38:06.578Z,72.77
2023-04-02T20:40:35.436Z,74.38
2023-04-02T20:43:03.847Z,73.26
2023-04-02T20:45:32.538Z,72.40
2023-04-02T20:48:00.862Z,72.76
2023-04-02T20:50:29.691Z,72.20
2023-04-02T20:52:58.832Z,71.16
2023-04-02T20:55:26.881Z,69.59
2023-04-02T20:57:55.132Z,69.81
2023-04-02T21:00:23.502Z,68.77
2023-04-02T21:02:51.820Z,70.02
2023-04-02T21:05:20.134Z,69.77
2023-04-02T21:07:49.456Z,69.65
2023-04-02T21:10:17.526Z,70.00
2023-04-02T21:12:45.909Z,70.09
2023-04-02T21:15:13.979Z,70.99
2023-04-02T21:17:42.500Z,71.68
2023-04-02T21:20:12.117Z,72.57
2023-04-02T21:22:40.952Z,73.28
2023-04-02T21:25:09.532Z,74.24
2023-04-02T21:27:37.814Z,73.21
2023-04-02T21:30:06.708Z,74.37
2023-04-02T21:32:35.015Z,74.15
2023-04-02T21:35:03.306Z,73.42
2023-04-02T21:37:31.416Z,73.34
2023-04-02T21:39:59.588Z,73.15
2023-04-02T21:42:27.973Z,73.27
2023-04-02T21:44:56.545Z,73.00
2023-04-02T21:47:25.142Z,72.72
2023-04-02T21:49:53.374Z,72.91
2023-04-02T21:52:21.582Z,73.21
2023-04-02T21:54:49.689Z,73.76
2023-04-02T21:57:18.945Z,74.01
2023-04-02T21:59:47.226Z,74.52
2023-04-02T22:02:16.222Z,74.84
2023-04-02T22:04:45.224Z,74.82
2023-04-02T22:07:13.315Z,74.46
2023-04-02T22:09:41.969Z,73.99
2023-04-02T22:12:09.943Z,72.82
2023-04-02T22:14:38.028Z,71.78
2023-04-02T22:17:07.583Z,71.69
2023-04-02T22:19:35.960Z,71.60
2023-04-02T22:22:04.263Z,70.36
2023-04-02T22:24:32.336Z,70.05
2023-04-02T22:27:00.820Z,69.77
2023-04-02T22:29:28.855Z,69.70
2023-04-02T22:31:57.144Z,69.93
2023-04-02T22:34:25.435Z,70.19
2023-04-02T22:36:53.627Z,70.03
2023-04-02T22:39:21.802Z,70.31
2023-04-02T22:41:49.847Z,70.86
2023-04-02T22:44:18.006Z,69.85
2023-04-02T22:46:46.717Z,69.77
2023-04-02T22:49:19.511Z,69.59
2023-04-02T22:51:48.069Z,69.20
2023-04-02T22:54:16.558Z,68.38
2023-04-02T22:56:44.720Z,68.28
2023-04-02T22:59:13.101Z,68.04
2023-04-02T23:01:41.701Z,68.45
2023-04-02T23:04:09.966Z,69.34
2023-04-02T23:06:38.140Z,70.11
2023-04-02T23:09:06.624Z,70.41
2023-04-02T23:11:35.007Z,69.80
2023-04-02T23:14:03.368Z,69.67
2023-04-02T23:16:31.958Z,69.65
2023-04-02T23:19:00.025Z,69.54
2023-04-02T23:21:28.135Z,69.21
2023-04-02T23:23:56.416Z,68.18
2023-04-02T23:26:30.704Z,67.01
2023-04-02T23:29:00.867Z,66.77
2023-04-02T23:31:29.114Z,66.76
2023-04-02T23:33:57.232Z,67.06
2023-04-02T23:36:26.779Z,67.83
2023-04-02T23:38:58.124Z,67.99
2023-04-02T23:41:27.205Z,67.26
2023-04-02T23:43:56.337Z,66.61
2023-04-02T23:46:24.978Z,66.46
2023-04-02T23:48:54.392Z,65.92
2023-04-02T23:51:23.295Z,65.77
2023-04-02T23:53:52.821Z,65.61
2023-04-02T23:56:22.102Z,65.29
2023-04-02T23:58:51.170Z,65.93
